sensor_id;sensor_type;location;lat;lon;timestamp;P1;durP1;ratioP1;P2;durP2;ratioP2
33413;SDS011;60055;41.884;12.534;2022-11-20T00:00:11;8.45;;;2.60;;
33413;SDS011;60055;41.884;12.534;2022-11-20T00:02:37;7.82;;;2.78;;
33413;SDS011;60055;41.884;12.534;2022-11-20T00:05:02;8.23;;;2.78;;
33413;SDS011;60055;41.884;12.534;2022-11-20T00:07:28;6.78;;;2.75;;
33413;SDS011;60055;41.884;12.534;2022-11-20T00:09:54;5.43;;;2.47;;
33413;SDS011;60055;41.884;12.534;2022-11-20T00:12:21;9.27;;;2.90;;
33413;SDS011;60055;41.884;12.534;2022-11-20T00:14:46;8.73;;;2.60;;
33413;SDS011;60055;41.884;12.534;2022-11-20T00:17:12;7.40;;;2.80;;
33413;SDS011;60055;41.884;12.534;2022-11-20T00:19:37;8.48;;;2.85;;
33413;SDS011;60055;41.884;12.534;2022-11-20T00:22:03;7.07;;;2.80;;
33413;SDS011;60055;41.884;12.534;2022-11-20T00:24:28;8.00;;;2.55;;
33413;SDS011;60055;41.884;12.534;2022-11-20T00:26:54;7.60;;;2.80;;
33413;SDS011;60055;41.884;12.534;2022-11-20T00:29:20;6.78;;;2.40;;
33413;SDS011;60055;41.884;12.534;2022-11-20T00:31:45;15.13;;;7.47;;
33413;SDS011;60055;41.884;12.534;2022-11-20T00:34:11;35.92;;;21.55;;
33413;SDS011;60055;41.884;12.534;2022-11-20T00:36:36;52.72;;;32.40;;
33413;SDS011;60055;41.884;12.534;2022-11-20T00:39:02;28.67;;;15.13;;
33413;SDS011;60055;41.884;12.534;2022-11-20T00:41:28;9.13;;;3.80;;
33413;SDS011;60055;41.884;12.534;2022-11-20T00:43:55;7.13;;;2.50;;
33413;SDS011;60055;41.884;12.534;2022-11-20T00:46:22;11.70;;;3.38;;
33413;SDS011;60055;41.884;12.534;2022-11-20T00:48:49;8.50;;;3.03;;
33413;SDS011;60055;41.884;12.534;2022-11-20T00:51:19;6.78;;;2.53;;
33413;SDS011;60055;41.884;12.534;2022-11-20T00:53:47;7.47;;;2.70;;
33413;SDS011;60055;41.884;12.534;2022-11-20T00:56:15;8.15;;;2.78;;
33413;SDS011;60055;41.884;12.534;2022-11-20T00:58:43;6.55;;;3.28;;
33413;SDS011;60055;41.884;12.534;2022-11-20T01:01:17;7.50;;;2.92;;
33413;SDS011;60055;41.884;12.534;2022-11-20T01:03:45;10.25;;;3.05;;
33413;SDS011;60055;41.884;12.534;2022-11-20T01:06:13;7.25;;;3.22;;
33413;SDS011;60055;41.884;12.534;2022-11-20T01:09:10;10.18;;;3.95;;
33413;SDS011;60055;41.884;12.534;2022-11-20T01:11:38;8.85;;;3.20;;
33413;SDS011;60055;41.884;12.534;2022-11-20T01:14:09;6.93;;;3.00;;
33413;SDS011;60055;41.884;12.534;2022-11-20T01:16:37;10.70;;;2.90;;
33413;SDS011;60055;41.884;12.534;2022-11-20T01:19:11;6.93;;;2.72;;
33413;SDS011;60055;41.884;12.534;2022-11-20T01:21:40;10.05;;;3.22;;
33413;SDS011;60055;41.884;12.534;2022-11-20T01:24:08;11.70;;;3.47;;
33413;SDS011;60055;41.884;12.534;2022-11-20T01:26:37;9.25;;;3.67;;
33413;SDS011;60055;41.884;12.534;2022-11-20T01:29:04;9.68;;;3.67;;
33413;SDS011;60055;41.884;12.534;2022-11-20T01:31:32;8.70;;;3.72;;
33413;SDS011;60055;41.884;12.534;2022-11-20T01:34:00;9.85;;;3.28;;
33413;SDS011;60055;41.884;12.534;2022-11-20T01:36:32;6.97;;;3.25;;
33413;SDS011;60055;41.884;12.534;2022-11-20T01:39:00;11.13;;;4.00;;
33413;SDS011;60055;41.884;12.534;2022-11-20T01:41:29;7.93;;;3.60;;
33413;SDS011;60055;41.884;12.534;2022-11-20T01:47:20;14.15;;;5.80;;
33413;SDS011;60055;41.884;12.534;2022-11-20T01:49:58;22.80;;;9.50;;
33413;SDS011;60055;41.884;12.534;2022-11-20T01:52:42;18.67;;;7.63;;
33413;SDS011;60055;41.884;12.534;2022-11-20T01:55:19;10.80;;;5.32;;
33413;SDS011;60055;41.884;12.534;2022-11-20T01:57:49;12.40;;;4.57;;
33413;SDS011;60055;41.884;12.534;2022-11-20T02:00:17;6.55;;;3.80;;
33413;SDS011;60055;41.884;12.534;2022-11-20T02:03:17;9.25;;;3.67;;
33413;SDS011;60055;41.884;12.534;2022-11-20T02:05:44;14.30;;;8.07;;
33413;SDS011;60055;41.884;12.534;2022-11-20T02:08:17;13.60;;;5.90;;
33413;SDS011;60055;41.884;12.534;2022-11-20T02:10:44;8.77;;;4.82;;
33413;SDS011;60055;41.884;12.534;2022-11-20T02:13:09;11.90;;;5.05;;
33413;SDS011;60055;41.884;12.534;2022-11-20T02:15:54;11.35;;;4.28;;
33413;SDS011;60055;41.884;12.534;2022-11-20T02:18:20;9.00;;;4.22;;
33413;SDS011;60055;41.884;12.534;2022-11-20T02:20:48;9.88;;;5.18;;
33413;SDS011;60055;41.884;12.534;2022-11-20T02:26:06;11.07;;;4.85;;
33413;SDS011;60055;41.884;12.534;2022-11-20T02:28:35;8.07;;;4.25;;
33413;SDS011;60055;41.884;12.534;2022-11-20T02:31:01;11.40;;;4.55;;
33413;SDS011;60055;41.884;12.534;2022-11-20T02:33:27;9.45;;;4.95;;
33413;SDS011;60055;41.884;12.534;2022-11-20T02:35:52;11.10;;;4.35;;
33413;SDS011;60055;41.884;12.534;2022-11-20T02:38:18;9.48;;;4.00;;
33413;SDS011;60055;41.884;12.534;2022-11-20T02:40:44;10.68;;;4.43;;
33413;SDS011;60055;41.884;12.534;2022-11-20T02:43:10;9.52;;;4.28;;
33413;SDS011;60055;41.884;12.534;2022-11-20T02:45:35;11.90;;;3.80;;
33413;SDS011;60055;41.884;12.534;2022-11-20T02:48:01;9.23;;;3.67;;
33413;SDS011;60055;41.884;12.534;2022-11-20T02:50:27;7.68;;;4.05;;
33413;SDS011;60055;41.884;12.534;2022-11-20T02:52:52;9.13;;;4.00;;
33413;SDS011;60055;41.884;12.534;2022-11-20T02:55:18;7.97;;;4.00;;
33413;SDS011;60055;41.884;12.534;2022-11-20T02:57:44;11.57;;;4.03;;
33413;SDS011;60055;41.884;12.534;2022-11-20T03:00:09;11.60;;;4.00;;
33413;SDS011;60055;41.884;12.534;2022-11-20T03:02:36;13.65;;;4.70;;
33413;SDS011;60055;41.884;12.534;2022-11-20T03:05:01;9.13;;;4.45;;
33413;SDS011;60055;41.884;12.534;2022-11-20T03:07:27;15.65;;;4.95;;
33413;SDS011;60055;41.884;12.534;2022-11-20T03:09:53;8.85;;;4.43;;
33413;SDS011;60055;41.884;12.534;2022-11-20T03:12:19;10.48;;;5.25;;
33413;SDS011;60055;41.884;12.534;2022-11-20T03:14:44;11.18;;;4.97;;
33413;SDS011;60055;41.884;12.534;2022-11-20T03:17:10;12.40;;;5.10;;
33413;SDS011;60055;41.884;12.534;2022-11-20T03:19:36;8.90;;;4.60;;
33413;SDS011;60055;41.884;12.534;2022-11-20T03:22:01;12.48;;;4.85;;
33413;SDS011;60055;41.884;12.534;2022-11-20T03:24:27;13.07;;;6.10;;
33413;SDS011;60055;41.884;12.534;2022-11-20T03:26:53;10.45;;;7.00;;
33413;SDS011;60055;41.884;12.534;2022-11-20T03:29:19;14.93;;;8.48;;
33413;SDS011;60055;41.884;12.534;2022-11-20T03:31:44;20.27;;;12.15;;
33413;SDS011;60055;41.884;12.534;2022-11-20T03:34:10;18.80;;;13.57;;
33413;SDS011;60055;41.884;12.534;2022-11-20T03:36:37;17.40;;;12.95;;
33413;SDS011;60055;41.884;12.534;2022-11-20T03:39:06;19.48;;;12.10;;
33413;SDS011;60055;41.884;12.534;2022-11-20T03:41:36;16.15;;;10.85;;
33413;SDS011;60055;41.884;12.534;2022-11-20T03:44:04;19.60;;;10.35;;
33413;SDS011;60055;41.884;12.534;2022-11-20T03:46:31;18.08;;;8.90;;
33413;SDS011;60055;41.884;12.534;2022-11-20T03:48:57;13.20;;;8.55;;
33413;SDS011;60055;41.884;12.534;2022-11-20T03:51:30;6.97;;;5.18;;
33413;SDS011;60055;41.884;12.534;2022-11-20T03:53:58;8.20;;;5.07;;
33413;SDS011;60055;41.884;12.534;2022-11-20T03:56:28;6.03;;;3.85;;
33413;SDS011;60055;41.884;12.534;2022-11-20T03:58:56;5.90;;;4.03;;
33413;SDS011;60055;41.884;12.534;2022-11-20T04:01:26;9.80;;;3.95;;
33413;SDS011;60055;41.884;12.534;2022-11-20T04:03:55;5.70;;;3.50;;
33413;SDS011;60055;41.884;12.534;2022-11-20T04:06:22;6.90;;;3.25;;
33413;SDS011;60055;41.884;12.534;2022-11-20T04:08:50;4.18;;;3.25;;
33413;SDS011;60055;41.884;12.534;2022-11-20T04:11:17;5.68;;;2.80;;
33413;SDS011;60055;41.884;12.534;2022-11-20T04:13:52;4.82;;;2.55;;
33413;SDS011;60055;41.884;12.534;2022-11-20T04:16:32;4.95;;;2.40;;
33413;SDS011;60055;41.884;12.534;2022-11-20T04:19:01;2.80;;;2.28;;
33413;SDS011;60055;41.884;12.534;2022-11-20T04:21:28;5.57;;;2.45;;
33413;SDS011;60055;41.884;12.534;2022-11-20T04:23:54;5.47;;;1.80;;
33413;SDS011;60055;41.884;12.534;2022-11-20T04:26:21;3.55;;;1.58;;
33413;SDS011;60055;41.884;12.534;2022-11-20T04:28:49;3.30;;;1.70;;
33413;SDS011;60055;41.884;12.534;2022-11-20T04:31:16;6.30;;;1.38;;
33413;SDS011;60055;41.884;12.534;2022-11-20T04:33:43;4.05;;;1.23;;
33413;SDS011;60055;41.884;12.534;2022-11-20T04:36:10;3.50;;;1.20;;
33413;SDS011;60055;41.884;12.534;2022-11-20T04:38:38;5.32;;;1.20;;
33413;SDS011;60055;41.884;12.534;2022-11-20T04:41:05;2.97;;;1.15;;
33413;SDS011;60055;41.884;12.534;2022-11-20T04:43:33;2.53;;;1.30;;
33413;SDS011;60055;41.884;12.534;2022-11-20T04:45:59;2.22;;;1.20;;
33413;SDS011;60055;41.884;12.534;2022-11-20T04:48:27;2.65;;;1.27;;
33413;SDS011;60055;41.884;12.534;2022-11-20T04:50:54;4.45;;;1.30;;
33413;SDS011;60055;41.884;12.534;2022-11-20T04:53:20;3.50;;;1.27;;
33413;SDS011;60055;41.884;12.534;2022-11-20T04:55:47;2.78;;;1.30;;
33413;SDS011;60055;41.884;12.534;2022-11-20T04:58:12;5.25;;;1.60;;
33413;SDS011;60055;41.884;12.534;2022-11-20T05:00:39;1.75;;;1.30;;
33413;SDS011;60055;41.884;12.534;2022-11-20T05:03:05;2.85;;;1.20;;
33413;SDS011;60055;41.884;12.534;2022-11-20T05:05:31;4.47;;;1.20;;
33413;SDS011;60055;41.884;12.534;2022-11-20T05:07:57;2.75;;;1.45;;
33413;SDS011;60055;41.884;12.534;2022-11-20T05:10:24;2.28;;;1.33;;
33413;SDS011;60055;41.884;12.534;2022-11-20T05:12:50;3.83;;;1.33;;
33413;SDS011;60055;41.884;12.534;2022-11-20T05:15:16;1.52;;;1.30;;
33413;SDS011;60055;41.884;12.534;2022-11-20T05:17:46;2.30;;;1.40;;
33413;SDS011;60055;41.884;12.534;2022-11-20T05:20:15;2.63;;;1.30;;
33413;SDS011;60055;41.884;12.534;2022-11-20T05:22:41;3.60;;;1.55;;
33413;SDS011;60055;41.884;12.534;2022-11-20T05:25:07;4.13;;;1.85;;
33413;SDS011;60055;41.884;12.534;2022-11-20T05:27:33;4.65;;;2.22;;
33413;SDS011;60055;41.884;12.534;2022-11-20T05:29:59;4.63;;;1.38;;
33413;SDS011;60055;41.884;12.534;2022-11-20T05:32:24;1.67;;;1.35;;
33413;SDS011;60055;41.884;12.534;2022-11-20T05:34:50;2.38;;;1.15;;
33413;SDS011;60055;41.884;12.534;2022-11-20T05:37:17;3.83;;;1.40;;
33413;SDS011;60055;41.884;12.534;2022-11-20T05:39:45;4.43;;;1.17;;
33413;SDS011;60055;41.884;12.534;2022-11-20T05:42:11;2.75;;;1.13;;
33413;SDS011;60055;41.884;12.534;2022-11-20T05:47:21;2.05;;;1.50;;
33413;SDS011;60055;41.884;12.534;2022-11-20T05:49:46;1.35;;;1.15;;
33413;SDS011;60055;41.884;12.534;2022-11-20T05:52:12;1.65;;;1.23;;
33413;SDS011;60055;41.884;12.534;2022-11-20T05:54:38;1.67;;;1.10;;
33413;SDS011;60055;41.884;12.534;2022-11-20T05:57:04;2.65;;;1.08;;
33413;SDS011;60055;41.884;12.534;2022-11-20T05:59:32;1.30;;;0.90;;
33413;SDS011;60055;41.884;12.534;2022-11-20T06:01:58;1.52;;;1.10;;
33413;SDS011;60055;41.884;12.534;2022-11-20T06:04:24;3.63;;;1.17;;
33413;SDS011;60055;41.884;12.534;2022-11-20T06:06:49;1.98;;;1.23;;
33413;SDS011;60055;41.884;12.534;2022-11-20T06:09:15;3.70;;;0.95;;
33413;SDS011;60055;41.884;12.534;2022-11-20T06:11:40;1.98;;;0.98;;
33413;SDS011;60055;41.884;12.534;2022-11-20T06:14:06;4.55;;;1.10;;
33413;SDS011;60055;41.884;12.534;2022-11-20T06:16:31;1.42;;;1.00;;
33413;SDS011;60055;41.884;12.534;2022-11-20T06:18:57;2.40;;;0.80;;
33413;SDS011;60055;41.884;12.534;2022-11-20T06:21:23;1.63;;;0.80;;
33413;SDS011;60055;41.884;12.534;2022-11-20T06:23:49;1.63;;;0.95;;
33413;SDS011;60055;41.884;12.534;2022-11-20T06:26:16;2.60;;;0.70;;
33413;SDS011;60055;41.884;12.534;2022-11-20T06:28:45;2.97;;;0.80;;
33413;SDS011;60055;41.884;12.534;2022-11-20T06:31:12;1.92;;;0.80;;
33413;SDS011;60055;41.884;12.534;2022-11-20T06:33:39;3.47;;;0.63;;
33413;SDS011;60055;41.884;12.534;2022-11-20T06:36:05;0.88;;;0.77;;
33413;SDS011;60055;41.884;12.534;2022-11-20T06:38:31;5.80;;;0.90;;
33413;SDS011;60055;41.884;12.534;2022-11-20T06:40:57;2.97;;;1.05;;
33413;SDS011;60055;41.884;12.534;2022-11-20T06:43:23;3.33;;;2.35;;
33413;SDS011;60055;41.884;12.534;2022-11-20T06:45:54;2.97;;;1.10;;
33413;SDS011;60055;41.884;12.534;2022-11-20T06:48:22;0.88;;;0.85;;
33413;SDS011;60055;41.884;12.534;2022-11-20T06:50:50;1.92;;;0.95;;
33413;SDS011;60055;41.884;12.534;2022-11-20T06:53:16;1.20;;;0.75;;
33413;SDS011;60055;41.884;12.534;2022-11-20T06:55:45;0.93;;;0.60;;
33413;SDS011;60055;41.884;12.534;2022-11-20T06:58:12;7.50;;;1.00;;
33413;SDS011;60055;41.884;12.534;2022-11-20T07:00:42;1.42;;;0.73;;
33413;SDS011;60055;41.884;12.534;2022-11-20T07:03:09;1.25;;;0.80;;
33413;SDS011;60055;41.884;12.534;2022-11-20T07:05:35;4.18;;;1.90;;
33413;SDS011;60055;41.884;12.534;2022-11-20T07:08:02;4.13;;;1.10;;
33413;SDS011;60055;41.884;12.534;2022-11-20T07:10:29;1.85;;;0.75;;
33413;SDS011;60055;41.884;12.534;2022-11-20T07:12:56;8.38;;;1.00;;
33413;SDS011;60055;41.884;12.534;2022-11-20T07:15:25;0.90;;;0.80;;
33413;SDS011;60055;41.884;12.534;2022-11-20T07:17:51;2.58;;;0.80;;
33413;SDS011;60055;41.884;12.534;2022-11-20T07:36:55;2.30;;;1.10;;
33413;SDS011;60055;41.884;12.534;2022-11-20T07:39:23;1.50;;;0.80;;
33413;SDS011;60055;41.884;12.534;2022-11-20T07:41:53;1.92;;;1.10;;
33413;SDS011;60055;41.884;12.534;2022-11-20T07:44:18;5.38;;;1.40;;
33413;SDS011;60055;41.884;12.534;2022-11-20T07:46:44;3.58;;;1.20;;
33413;SDS011;60055;41.884;12.534;2022-11-20T07:49:10;1.30;;;1.00;;
33413;SDS011;60055;41.884;12.534;2022-11-20T07:51:38;1.65;;;0.95;;
33413;SDS011;60055;41.884;12.534;2022-11-20T07:54:20;2.20;;;0.85;;
33413;SDS011;60055;41.884;12.534;2022-11-20T07:56:54;3.10;;;0.80;;
33413;SDS011;60055;41.884;12.534;2022-11-20T07:59:23;3.42;;;1.10;;
33413;SDS011;60055;41.884;12.534;2022-11-20T08:01:48;2.05;;;0.80;;
33413;SDS011;60055;41.884;12.534;2022-11-20T08:04:17;1.50;;;0.73;;
33413;SDS011;60055;41.884;12.534;2022-11-20T08:06:42;3.53;;;1.00;;
33413;SDS011;60055;41.884;12.534;2022-11-20T08:09:08;2.28;;;0.98;;
33413;SDS011;60055;41.884;12.534;2022-11-20T08:11:34;1.05;;;0.70;;
33413;SDS011;60055;41.884;12.534;2022-11-20T08:14:21;1.83;;;0.85;;
33413;SDS011;60055;41.884;12.534;2022-11-20T08:16:47;1.10;;;0.80;;
33413;SDS011;60055;41.884;12.534;2022-11-20T08:19:17;1.88;;;0.98;;
33413;SDS011;60055;41.884;12.534;2022-11-20T08:21:43;2.88;;;1.17;;
33413;SDS011;60055;41.884;12.534;2022-11-20T08:24:10;1.35;;;0.82;;
33413;SDS011;60055;41.884;12.534;2022-11-20T08:26:37;2.40;;;1.13;;
33413;SDS011;60055;41.884;12.534;2022-11-20T08:29:03;4.35;;;1.15;;
33413;SDS011;60055;41.884;12.534;2022-11-20T08:31:30;1.33;;;1.10;;
33413;SDS011;60055;41.884;12.534;2022-11-20T08:33:58;2.35;;;1.13;;
33413;SDS011;60055;41.884;12.534;2022-11-20T08:36:24;1.40;;;1.10;;
33413;SDS011;60055;41.884;12.534;2022-11-20T08:38:52;2.83;;;1.85;;
33413;SDS011;60055;41.884;12.534;2022-11-20T08:41:19;3.25;;;1.30;;
33413;SDS011;60055;41.884;12.534;2022-11-20T08:43:51;2.22;;;1.30;;
33413;SDS011;60055;41.884;12.534;2022-11-20T08:46:33;2.30;;;1.38;;
33413;SDS011;60055;41.884;12.534;2022-11-20T08:49:08;3.85;;;1.30;;
33413;SDS011;60055;41.884;12.534;2022-11-20T08:51:48;1.63;;;1.20;;
33413;SDS011;60055;41.884;12.534;2022-11-20T08:54:18;1.67;;;1.20;;
33413;SDS011;60055;41.884;12.534;2022-11-20T08:56:49;14.85;;;7.22;;
33413;SDS011;60055;41.884;12.534;2022-11-20T08:59:20;4.10;;;2.40;;
33413;SDS011;60055;41.884;12.534;2022-11-20T09:01:49;2.13;;;1.60;;
33413;SDS011;60055;41.884;12.534;2022-11-20T09:04:15;4.18;;;1.33;;
33413;SDS011;60055;41.884;12.534;2022-11-20T09:06:41;2.53;;;1.42;;
33413;SDS011;60055;41.884;12.534;2022-11-20T09:09:07;2.05;;;1.10;;
33413;SDS011;60055;41.884;12.534;2022-11-20T09:11:34;1.77;;;1.30;;
33413;SDS011;60055;41.884;12.534;2022-11-20T09:14:00;1.90;;;1.15;;
33413;SDS011;60055;41.884;12.534;2022-11-20T09:16:27;1.40;;;1.10;;
33413;SDS011;60055;41.884;12.534;2022-11-20T09:18:53;3.72;;;1.23;;
33413;SDS011;60055;41.884;12.534;2022-11-20T09:21:22;11.55;;;1.27;;
33413;SDS011;60055;41.884;12.534;2022-11-20T09:23:51;3.08;;;1.17;;
33413;SDS011;60055;41.884;12.534;2022-11-20T09:26:17;1.40;;;0.95;;
33413;SDS011;60055;41.884;12.534;2022-11-20T09:28:48;2.45;;;1.13;;
33413;SDS011;60055;41.884;12.534;2022-11-20T09:31:19;2.55;;;1.30;;
33413;SDS011;60055;41.884;12.534;2022-11-20T09:33:48;3.10;;;1.40;;
33413;SDS011;60055;41.884;12.534;2022-11-20T09:36:14;2.33;;;1.30;;
33413;SDS011;60055;41.884;12.534;2022-11-20T09:38:41;1.55;;;1.10;;
33413;SDS011;60055;41.884;12.534;2022-11-20T09:41:10;2.13;;;1.30;;
33413;SDS011;60055;41.884;12.534;2022-11-20T09:47:06;4.65;;;1.20;;
33413;SDS011;60055;41.884;12.534;2022-11-20T09:53:04;1.85;;;1.13;;
33413;SDS011;60055;41.884;12.534;2022-11-20T09:56:00;3.55;;;1.15;;
33413;SDS011;60055;41.884;12.534;2022-11-20T09:58:30;0.95;;;0.80;;
33413;SDS011;60055;41.884;12.534;2022-11-20T10:01:10;2.95;;;1.50;;
33413;SDS011;60055;41.884;12.534;2022-11-20T10:06:37;2.20;;;1.13;;
33413;SDS011;60055;41.884;12.534;2022-11-20T10:22:25;2.50;;;1.20;;
33413;SDS011;60055;41.884;12.534;2022-11-20T10:25:20;2.83;;;1.10;;
33413;SDS011;60055;41.884;12.534;2022-11-20T10:30:37;2.45;;;0.88;;
33413;SDS011;60055;41.884;12.534;2022-11-20T10:33:19;2.53;;;0.90;;
33413;SDS011;60055;41.884;12.534;2022-11-20T10:35:56;3.50;;;1.30;;
33413;SDS011;60055;41.884;12.534;2022-11-20T10:38:52;3.85;;;1.08;;
33413;SDS011;60055;41.884;12.534;2022-11-20T10:41:24;1.90;;;0.98;;
33413;SDS011;60055;41.884;12.534;2022-11-20T10:44:02;3.38;;;1.05;;
33413;SDS011;60055;41.884;12.534;2022-11-20T10:46:36;3.42;;;1.17;;
33413;SDS011;60055;41.884;12.534;2022-11-20T10:49:13;2.50;;;1.17;;
33413;SDS011;60055;41.884;12.534;2022-11-20T11:00:24;2.25;;;1.20;;
33413;SDS011;60055;41.884;12.534;2022-11-20T11:02:51;2.53;;;1.40;;
33413;SDS011;60055;41.884;12.534;2022-11-20T11:08:10;1.52;;;0.80;;
33413;SDS011;60055;41.884;12.534;2022-11-20T11:13:27;1.10;;;0.90;;
33413;SDS011;60055;41.884;12.534;2022-11-20T11:15:57;1.85;;;0.93;;
33413;SDS011;60055;41.884;12.534;2022-11-20T11:18:28;3.65;;;1.05;;
33413;SDS011;60055;41.884;12.534;2022-11-20T11:20:57;2.20;;;1.17;;
33413;SDS011;60055;41.884;12.534;2022-11-20T11:26:00;2.65;;;0.95;;
33413;SDS011;60055;41.884;12.534;2022-11-20T11:28:29;0.80;;;0.70;;
33413;SDS011;60055;41.884;12.534;2022-11-20T11:30:57;3.40;;;0.80;;
33413;SDS011;60055;41.884;12.534;2022-11-20T11:33:28;3.53;;;0.90;;
33413;SDS011;60055;41.884;12.534;2022-11-20T11:35:56;1.45;;;0.93;;
33413;SDS011;60055;41.884;12.534;2022-11-20T11:38:30;2.42;;;0.90;;
33413;SDS011;60055;41.884;12.534;2022-11-20T11:41:07;2.15;;;1.00;;
33413;SDS011;60055;41.884;12.534;2022-11-20T11:46:33;4.32;;;1.48;;
33413;SDS011;60055;41.884;12.534;2022-11-20T11:54:08;2.15;;;0.90;;
33413;SDS011;60055;41.884;12.534;2022-11-20T11:56:42;2.50;;;1.10;;
33413;SDS011;60055;41.884;12.534;2022-11-20T11:59:10;2.97;;;1.77;;
33413;SDS011;60055;41.884;12.534;2022-11-20T12:06:58;1.67;;;0.85;;
33413;SDS011;60055;41.884;12.534;2022-11-20T12:09:32;0.90;;;0.70;;
33413;SDS011;60055;41.884;12.534;2022-11-20T12:15:10;1.08;;;0.80;;
33413;SDS011;60055;41.884;12.534;2022-11-20T12:17:45;3.78;;;1.30;;
33413;SDS011;60055;41.884;12.534;2022-11-20T12:20:16;1.10;;;0.88;;
33413;SDS011;60055;41.884;12.534;2022-11-20T12:23:28;1.63;;;1.10;;
33413;SDS011;60055;41.884;12.534;2022-11-20T12:25:57;3.50;;;1.13;;
33413;SDS011;60055;41.884;12.534;2022-11-20T12:40:33;2.08;;;1.20;;
33413;SDS011;60055;41.884;12.534;2022-11-20T12:43:21;2.28;;;1.45;;
33413;SDS011;60055;41.884;12.534;2022-11-20T12:46:14;2.90;;;1.92;;
33413;SDS011;60055;41.884;12.534;2022-11-20T12:49:07;2.38;;;1.70;;
33413;SDS011;60055;41.884;12.534;2022-11-20T12:51:59;1.45;;;1.00;;
33413;SDS011;60055;41.884;12.534;2022-11-20T13:08:29;4.40;;;1.17;;
33413;SDS011;60055;41.884;12.534;2022-11-20T13:11:18;1.73;;;0.90;;
33413;SDS011;60055;41.884;12.534;2022-11-20T13:20:04;1.63;;;1.20;;
33413;SDS011;60055;41.884;12.534;2022-11-20T13:22:47;2.67;;;1.17;;
33413;SDS011;60055;41.884;12.534;2022-11-20T13:25:27;2.03;;;1.20;;
33413;SDS011;60055;41.884;12.534;2022-11-20T13:28:00;3.90;;;1.40;;
33413;SDS011;60055;41.884;12.534;2022-11-20T13:30:33;3.25;;;0.90;;
33413;SDS011;60055;41.884;12.534;2022-11-20T13:36:22;4.30;;;1.38;;
33413;SDS011;60055;41.884;12.534;2022-11-20T13:39:08;3.40;;;1.52;;
33413;SDS011;60055;41.884;12.534;2022-11-20T13:41:36;2.83;;;1.60;;
33413;SDS011;60055;41.884;12.534;2022-11-20T13:44:14;2.95;;;1.55;;
33413;SDS011;60055;41.884;12.534;2022-11-20T13:47:00;4.68;;;1.50;;
33413;SDS011;60055;41.884;12.534;2022-11-20T13:49:38;2.55;;;1.33;;
33413;SDS011;60055;41.884;12.534;2022-11-20T13:58:19;3.88;;;2.00;;
33413;SDS011;60055;41.884;12.534;2022-11-20T14:00:58;3.83;;;2.00;;
33413;SDS011;60055;41.884;12.534;2022-11-20T14:03:35;5.43;;;1.23;;
33413;SDS011;60055;41.884;12.534;2022-11-20T14:06:05;4.90;;;1.33;;
33413;SDS011;60055;41.884;12.534;2022-11-20T14:08:50;2.10;;;1.10;;
33413;SDS011;60055;41.884;12.534;2022-11-20T14:11:26;2.40;;;1.15;;
33413;SDS011;60055;41.884;12.534;2022-11-20T14:16:25;2.53;;;1.23;;
33413;SDS011;60055;41.884;12.534;2022-11-20T14:18:54;2.95;;;1.50;;
33413;SDS011;60055;41.884;12.534;2022-11-20T14:21:22;2.33;;;1.40;;
33413;SDS011;60055;41.884;12.534;2022-11-20T14:24:02;2.22;;;1.38;;
33413;SDS011;60055;41.884;12.534;2022-11-20T14:26:32;4.82;;;1.30;;
33413;SDS011;60055;41.884;12.534;2022-11-20T14:29:27;2.63;;;1.17;;
33413;SDS011;60055;41.884;12.534;2022-11-20T14:31:55;2.88;;;1.10;;
33413;SDS011;60055;41.884;12.534;2022-11-20T14:34:26;5.07;;;1.73;;
33413;SDS011;60055;41.884;12.534;2022-11-20T14:37:02;2.20;;;1.42;;
33413;SDS011;60055;41.884;12.534;2022-11-20T14:39:47;2.17;;;1.30;;
33413;SDS011;60055;41.884;12.534;2022-11-20T14:42:22;3.15;;;1.00;;
33413;SDS011;60055;41.884;12.534;2022-11-20T14:44:52;4.35;;;1.20;;
33413;SDS011;60055;41.884;12.534;2022-11-20T14:47:24;1.30;;;1.17;;
33413;SDS011;60055;41.884;12.534;2022-11-20T14:49:54;3.15;;;1.30;;
33413;SDS011;60055;41.884;12.534;2022-11-20T14:52:23;1.70;;;1.10;;
33413;SDS011;60055;41.884;12.534;2022-11-20T14:54:52;2.53;;;1.30;;
33413;SDS011;60055;41.884;12.534;2022-11-20T14:57:28;3.15;;;1.00;;
33413;SDS011;60055;41.884;12.534;2022-11-20T15:02:41;4.18;;;1.25;;
33413;SDS011;60055;41.884;12.534;2022-11-20T15:05:07;3.35;;;1.20;;
33413;SDS011;60055;41.884;12.534;2022-11-20T15:07:38;2.60;;;1.25;;
33413;SDS011;60055;41.884;12.534;2022-11-20T15:12:53;2.63;;;1.20;;
33413;SDS011;60055;41.884;12.534;2022-11-20T15:15:51;2.53;;;1.38;;
33413;SDS011;60055;41.884;12.534;2022-11-20T15:18:23;1.52;;;1.08;;
33413;SDS011;60055;41.884;12.534;2022-11-20T15:21:15;4.18;;;1.00;;
33413;SDS011;60055;41.884;12.534;2022-11-20T15:23:47;4.68;;;1.20;;
33413;SDS011;60055;41.884;12.534;2022-11-20T15:26:14;1.95;;;1.23;;
33413;SDS011;60055;41.884;12.534;2022-11-20T15:28:52;5.40;;;1.27;;
33413;SDS011;60055;41.884;12.534;2022-11-20T15:31:20;2.60;;;1.30;;
33413;SDS011;60055;41.884;12.534;2022-11-20T15:33:48;2.92;;;1.20;;
33413;SDS011;60055;41.884;12.534;2022-11-20T15:36:14;1.90;;;1.10;;
33413;SDS011;60055;41.884;12.534;2022-11-20T15:38:43;3.88;;;1.48;;
33413;SDS011;60055;41.884;12.534;2022-11-20T15:41:22;1.92;;;1.20;;
33413;SDS011;60055;41.884;12.534;2022-11-20T15:43:54;2.33;;;1.33;;
33413;SDS011;60055;41.884;12.534;2022-11-20T15:46:24;2.65;;;1.20;;
33413;SDS011;60055;41.884;12.534;2022-11-20T15:48:58;3.38;;;1.60;;
33413;SDS011;60055;41.884;12.534;2022-11-20T15:51:31;2.88;;;1.42;;
33413;SDS011;60055;41.884;12.534;2022-11-20T15:54:00;3.80;;;1.45;;
33413;SDS011;60055;41.884;12.534;2022-11-20T15:56:27;1.65;;;1.20;;
33413;SDS011;60055;41.884;12.534;2022-11-20T15:59:01;4.93;;;1.30;;
33413;SDS011;60055;41.884;12.534;2022-11-20T16:01:32;2.53;;;1.25;;
33413;SDS011;60055;41.884;12.534;2022-11-20T16:04:04;1.92;;;1.30;;
33413;SDS011;60055;41.884;12.534;2022-11-20T16:06:45;1.90;;;1.27;;
33413;SDS011;60055;41.884;12.534;2022-11-20T16:09:11;4.40;;;1.25;;
33413;SDS011;60055;41.884;12.534;2022-11-20T16:11:43;2.65;;;1.15;;
33413;SDS011;60055;41.884;12.534;2022-11-20T16:14:11;2.13;;;1.17;;
33413;SDS011;60055;41.884;12.534;2022-11-20T16:16:58;1.73;;;1.30;;
33413;SDS011;60055;41.884;12.534;2022-11-20T16:19:39;4.75;;;1.83;;
33413;SDS011;60055;41.884;12.534;2022-11-20T16:22:04;4.18;;;1.40;;
33413;SDS011;60055;41.884;12.534;2022-11-20T16:24:31;5.65;;;1.40;;
33413;SDS011;60055;41.884;12.534;2022-11-20T16:26:57;3.60;;;1.80;;
33413;SDS011;60055;41.884;12.534;2022-11-20T16:29:27;3.40;;;2.38;;
33413;SDS011;60055;41.884;12.534;2022-11-20T16:31:56;5.93;;;2.30;;
33413;SDS011;60055;41.884;12.534;2022-11-20T16:34:22;4.15;;;2.33;;
33413;SDS011;60055;41.884;12.534;2022-11-20T16:36:53;3.72;;;1.70;;
33413;SDS011;60055;41.884;12.534;2022-11-20T16:39:24;4.20;;;1.88;;
33413;SDS011;60055;41.884;12.534;2022-11-20T16:41:54;3.53;;;1.70;;
33413;SDS011;60055;41.884;12.534;2022-11-20T16:44:26;3.20;;;1.70;;
33413;SDS011;60055;41.884;12.534;2022-11-20T16:46:56;4.00;;;1.60;;
33413;SDS011;60055;41.884;12.534;2022-11-20T16:49:24;4.03;;;2.10;;
33413;SDS011;60055;41.884;12.534;2022-11-20T16:51:53;5.20;;;2.53;;
33413;SDS011;60055;41.884;12.534;2022-11-20T16:54:22;5.90;;;2.75;;
33413;SDS011;60055;41.884;12.534;2022-11-20T16:56:53;4.63;;;3.30;;
33413;SDS011;60055;41.884;12.534;2022-11-20T16:59:19;9.48;;;4.60;;
33413;SDS011;60055;41.884;12.534;2022-11-20T17:01:46;9.63;;;5.07;;
33413;SDS011;60055;41.884;12.534;2022-11-20T17:04:13;8.07;;;5.55;;